Maghera, United Kingdom
Current Conditions -  °F | °C
As of 6:20 AM on Sunday 26 Oct 2014 (Local Time) from EGAA Reporting Station
Broken Clouds Broken Clouds  
Wind Chill: 52°   Ceiling: 2200
Heat Index: 52°   Visibility: 6mi
Dew Point: 48°   Wind: 15mph
Humidity: 88%   Direction: 230°SW
Pressure: 29.77"   Gusts: NA
Location:  54.84°N, 6.67°W
Report Text: EGAA 260520Z 23013KT 9999 FEW016 BKN022 11/09 Q1008
Loading
Personal Weather Stations






























Interactive Weather Map New forecast layout! Learn more

10-Day Weather Forecast

Advertisements
Track Severe Weather on mobile